Time;durP1;ratioP1;P1;durP2;ratioP2;P2;SDS_P1;SDS_P2;PMS_P1;PMS_P2;Temp;Humidity;BMP_temperature;BMP_pressure;BME280_temperature;BME280_humidity;BME280_pressure;Samples;Min_cycle;Max_cycle;Signal;HPM_P1;HPM_P2
2022/01/31 00:01:27;;;;;;;22.25;4.78;;;;;;;;;;5042766;28;20040;-62
2022/01/31 00:03:53;;;;;;;24.10;6.00;;;;;;;;;;5047125;28;20407;-62
2022/01/31 00:06:19;;;;;;;22.70;5.72;;;;;;;;;;5036042;28;20065;-63
2022/01/31 00:08:45;;;;;;;24.15;5.28;;;;;;;;;;5034288;28;20444;-62
2022/01/31 00:11:11;;;;;;;21.20;4.78;;;;;;;;;;5034401;28;20041;-63
2022/01/31 00:13:42;;;;;;;18.45;5.30;;;;;;;;;;5034374;28;20037;-62
2022/01/31 00:16:14;;;;;;;14.05;5.88;;;;;;;;;;5041524;28;20044;-62
2022/01/31 00:18:40;;;;;;;;;;;;;;;;;;5035084;28;20077;-62
2022/01/31 00:21:06;;;;;;;23.88;6.22;;;;;;;;;;5033895;28;20004;-62
2022/01/31 00:23:32;;;;;;;13.90;4.40;;;;;;;;;;5034019;28;20030;-62
2022/01/31 00:25:58;;;;;;;24.17;5.45;;;;;;;;;;5033767;28;20061;-62
2022/01/31 00:28:24;;;;;;;23.98;5.47;;;;;;;;;;5034018;28;20487;-62
2022/01/31 00:30:50;;;;;;;22.50;5.40;;;;;;;;;;5033976;28;20056;-62
2022/01/31 00:33:16;;;;;;;17.40;5.35;;;;;;;;;;5034316;28;20041;-62
2022/01/31 00:35:42;;;;;;;26.85;5.72;;;;;;;;;;5033716;28;20487;-63
2022/01/31 00:38:08;;;;;;;22.55;5.88;;;;;;;;;;5033687;28;20407;-62
2022/01/31 00:40:35;;;;;;;19.60;5.47;;;;;;;;;;5035544;28;20131;-63
2022/01/31 00:43:01;;;;;;;19.92;6.47;;;;;;;;;;5031971;28;20050;-62
2022/01/31 00:45:29;;;;;;;18.38;5.63;;;;;;;;;;5025105;28;20510;-63
2022/01/31 00:48:01;;;;;;;22.50;6.90;;;;;;;;;;5033493;28;20073;-63
2022/01/31 00:50:36;;;;;;;15.15;5.53;;;;;;;;;;5033765;28;20117;-62
2022/01/31 00:53:02;;;;;;;21.77;6.15;;;;;;;;;;5033765;28;20042;-62
2022/01/31 00:55:29;;;;;;;21.90;6.20;;;;;;;;;;5031664;28;20069;-62
2022/01/31 00:57:55;;;;;;;20.27;5.93;;;;;;;;;;5031428;28;20029;-62
2022/01/31 01:00:20;;;;;;;19.75;6.40;;;;;;;;;;5033287;28;20041;-62
2022/01/31 01:02:47;;;;;;;17.23;6.30;;;;;;;;;;5032748;28;20045;-62
2022/01/31 01:05:13;;;;;;;15.50;6.13;;;;;;;;;;5032953;28;20038;-62
2022/01/31 01:07:40;;;;;;;26.73;6.78;;;;;;;;;;5032738;28;20041;-63
2022/01/31 01:10:07;;;;;;;15.75;5.47;;;;;;;;;;5026994;28;20132;-62
2022/01/31 01:12:33;;;;;;;24.35;7.03;;;;;;;;;;5034069;28;20402;-62
2022/01/31 01:14:59;;;;;;;13.50;5.47;;;;;;;;;;5038052;28;20040;-62
2022/01/31 01:17:25;;;;;;;17.80;6.32;;;;;;;;;;5033913;28;20072;-62
2022/01/31 01:19:51;;;;;;;15.32;6.00;;;;;;;;;;5029786;28;20045;-62
2022/01/31 01:22:17;;;;;;;19.25;6.53;;;;;;;;;;5032612;28;20113;-62
2022/01/31 01:24:42;;;;;;;20.85;6.75;;;;;;;;;;5025913;28;20120;-62
2022/01/31 01:27:10;;;;;;;22.48;7.50;;;;;;;;;;5032279;28;20033;-62
2022/01/31 01:29:36;;;;;;;21.05;7.10;;;;;;;;;;5023799;28;20060;-63
2022/01/31 01:32:02;;;;;;;22.00;7.55;;;;;;;;;;5034126;28;20056;-63
2022/01/31 01:34:32;;;;;;;16.73;7.25;;;;;;;;;;5033452;28;20116;-62
2022/01/31 01:36:58;;;;;;;21.50;6.90;;;;;;;;;;5039268;28;20052;-63
2022/01/31 01:39:24;;;;;;;16.38;7.95;;;;;;;;;;5044347;28;20029;-62
2022/01/31 01:41:50;;;;;;;18.48;7.68;;;;;;;;;;5052927;28;20411;-63
2022/01/31 01:44:16;;;;;;;22.35;9.00;;;;;;;;;;5052521;28;20037;-62
2022/01/31 01:46:42;;;;;;;24.40;8.65;;;;;;;;;;5045006;28;20096;-62
2022/01/31 01:49:08;;;;;;;22.83;9.63;;;;;;;;;;5037948;28;20060;-62
2022/01/31 01:51:34;;;;;;;27.48;9.32;;;;;;;;;;5048161;28;20158;-62
2022/01/31 01:54:00;;;;;;;24.35;10.82;;;;;;;;;;5043082;28;20055;-62
2022/01/31 01:56:27;;;;;;;26.83;10.77;;;;;;;;;;5049495;28;20119;-62
2022/01/31 01:58:53;;;;;;;21.23;10.18;;;;;;;;;;5031993;28;20390;-62
2022/01/31 02:01:20;;;;;;;23.75;10.80;;;;;;;;;;5032458;28;20100;-62
2022/01/31 02:03:46;;;;;;;20.70;10.27;;;;;;;;;;5036858;28;20034;-62
2022/01/31 02:06:11;;;;;;;25.02;11.85;;;;;;;;;;5039707;28;20037;-62
2022/01/31 02:08:40;;;;;;;26.90;12.02;;;;;;;;;;5049766;28;20122;-62
2022/01/31 02:11:07;;;;;;;21.70;11.10;;;;;;;;;;5038422;28;20519;-62
2022/01/31 02:13:35;;;;;;;21.00;11.10;;;;;;;;;;5032982;28;20122;-63
2022/01/31 02:16:01;;;;;;;23.90;11.25;;;;;;;;;;5046779;28;20110;-63
2022/01/31 02:18:28;;;;;;;21.77;11.80;;;;;;;;;;5038180;28;20033;-62
2022/01/31 02:20:54;;;;;;;24.52;11.07;;;;;;;;;;5041036;28;20038;-62
2022/01/31 02:23:21;;;;;;;26.73;12.10;;;;;;;;;;5032176;28;20034;-63
2022/01/31 02:25:52;;;;;;;23.25;11.57;;;;;;;;;;5031413;28;20491;-63
2022/01/31 02:28:18;;;;;;;23.87;10.97;;;;;;;;;;5036810;28;20391;-62
2022/01/31 02:30:44;;;;;;;27.40;10.73;;;;;;;;;;5032251;28;20383;-63
2022/01/31 02:33:10;;;;;;;23.42;11.25;;;;;;;;;;5044807;28;20041;-63
2022/01/31 02:35:36;;;;;;;16.60;8.63;;;;;;;;;;5034848;28;20478;-62
2022/01/31 02:38:02;;;;;;;19.77;10.65;;;;;;;;;;5039770;28;20116;-62
2022/01/31 02:40:28;;;;;;;25.52;10.98;;;;;;;;;;5031844;28;20037;-62
2022/01/31 02:42:54;;;;;;;25.15;11.80;;;;;;;;;;5044965;28;20049;-63
2022/01/31 02:45:20;;;;;;;20.60;10.15;;;;;;;;;;5048353;28;20040;-63
2022/01/31 02:47:53;;;;;;;19.33;10.82;;;;;;;;;;5050270;28;20148;-63
2022/01/31 02:50:19;;;;;;;21.95;10.55;;;;;;;;;;5036889;28;20044;-62
2022/01/31 02:52:48;;;;;;;24.40;11.52;;;;;;;;;;5031725;28;20498;-63
2022/01/31 02:55:15;;;;;;;17.75;10.30;;;;;;;;;;5037985;28;20041;-62
2022/01/31 02:57:41;;;;;;;18.25;10.55;;;;;;;;;;5031218;28;20099;-62
2022/01/31 03:00:08;;;;;;;18.52;10.63;;;;;;;;;;5036476;28;20061;-62
2022/01/31 03:02:34;;;;;;;14.95;9.35;;;;;;;;;;5038706;28;20117;-62
2022/01/31 03:05:00;;;;;;;17.05;9.07;;;;;;;;;;5030877;28;20104;-62
2022/01/31 03:07:26;;;;;;;11.02;7.25;;;;;;;;;;5036383;28;20037;-63
2022/01/31 03:09:52;;;;;;;11.98;7.80;;;;;;;;;;5030599;28;20118;-63
2022/01/31 03:12:18;;;;;;;11.82;8.10;;;;;;;;;;5031577;28;20476;-63
2022/01/31 03:14:44;;;;;;;12.35;7.57;;;;;;;;;;5036647;28;20188;-63
2022/01/31 03:17:10;;;;;;;9.98;5.70;;;;;;;;;;5041782;28;20244;-62
2022/01/31 03:19:42;;;;;;;11.38;7.13;;;;;;;;;;5033483;28;20041;-63
2022/01/31 03:22:08;;;;;;;;;;;;;;;;;;5032079;28;20076;-62
2022/01/31 03:24:34;;;;;;;11.65;7.60;;;;;;;;;;5030588;28;20521;-62
2022/01/31 03:27:00;;;;;;;12.30;7.03;;;;;;;;;;5038544;28;20098;-62
2022/01/31 03:29:27;;;;;;;12.20;7.35;;;;;;;;;;5045833;28;20487;-62
2022/01/31 03:31:53;;;;;;;15.00;9.07;;;;;;;;;;5032093;28;20045;-63
2022/01/31 03:34:19;;;;;;;13.60;9.27;;;;;;;;;;5049621;28;20048;-63
2022/01/31 03:36:45;;;;;;;17.08;9.05;;;;;;;;;;5043403;28;20042;-63
2022/01/31 03:39:11;;;;;;;16.65;8.57;;;;;;;;;;5034388;28;20088;-62
2022/01/31 03:41:38;;;;;;;15.52;9.70;;;;;;;;;;5035155;28;20045;-62
2022/01/31 03:44:04;;;;;;;15.02;8.95;;;;;;;;;;5044419;28;20059;-63
2022/01/31 03:46:33;;;;;;;16.88;8.68;;;;;;;;;;5051231;28;20049;-62
2022/01/31 03:48:59;;;;;;;15.73;9.32;;;;;;;;;;5042608;28;20495;-63
2022/01/31 03:51:25;;;;;;;14.88;7.40;;;;;;;;;;5040034;28;20048;-63
2022/01/31 03:53:51;;;;;;;14.65;8.70;;;;;;;;;;5039132;28;20402;-63
2022/01/31 03:56:17;;;;;;;16.60;8.40;;;;;;;;;;5053060;28;20130;-63
2022/01/31 03:58:43;;;;;;;16.60;8.48;;;;;;;;;;5043569;28;20640;-63
2022/01/31 04:01:09;;;;;;;15.60;8.05;;;;;;;;;;5052949;28;20394;-63
2022/01/31 04:03:35;;;;;;;15.07;8.63;;;;;;;;;;5035516;28;20419;-63
2022/01/31 04:06:01;;;;;;;20.95;8.48;;;;;;;;;;5034615;28;20128;-63
2022/01/31 04:08:27;;;;;;;21.98;9.10;;;;;;;;;;5052000;28;20551;-63
2022/01/31 04:10:53;;;;;;;16.67;8.25;;;;;;;;;;5049843;28;20229;-63
2022/01/31 04:13:19;;;;;;;23.40;8.40;;;;;;;;;;5035546;28;20045;-63
2022/01/31 04:15:45;;;;;;;17.63;7.75;;;;;;;;;;5047366;28;20137;-63
2022/01/31 04:18:11;;;;;;;15.98;7.47;;;;;;;;;;5035185;28;20523;-63
2022/01/31 04:20:37;;;;;;;19.08;7.35;;;;;;;;;;5038521;28;20375;-63
2022/01/31 04:23:09;;;;;;;19.98;6.15;;;;;;;;;;5043393;28;20037;-63
2022/01/31 04:25:44;;;;;;;15.88;5.65;;;;;;;;;;5054300;28;20052;-64
2022/01/31 04:30:50;;;;;;;20.05;4.88;;;;;;;;;;5035582;28;20050;-63
2022/01/31 04:33:16;;;;;;;19.00;4.68;;;;;;;;;;5047769;28;20044;-63
2022/01/31 04:35:42;;;;;;;19.98;4.18;;;;;;;;;;5041187;28;20483;-63
2022/01/31 04:38:07;;;;;;;21.15;4.90;;;;;;;;;;5054183;28;20517;-63
2022/01/31 04:40:33;;;;;;;18.23;4.20;;;;;;;;;;5050546;28;20458;-63
2022/01/31 04:42:59;;;;;;;18.63;4.45;;;;;;;;;;5053767;28;20040;-63
2022/01/31 04:45:26;;;;;;;21.23;3.95;;;;;;;;;;5048570;28;20033;-63
2022/01/31 04:47:52;;;;;;;14.90;3.13;;;;;;;;;;5037851;28;20083;-63
2022/01/31 04:50:17;;;;;;;18.25;2.92;;;;;;;;;;5033570;28;20037;-63
2022/01/31 04:52:43;;;;;;;20.73;3.17;;;;;;;;;;5033800;28;20033;-63
2022/01/31 04:55:10;;;;;;;22.23;3.30;;;;;;;;;;5043412;28;20041;-62
2022/01/31 04:57:36;;;;;;;14.27;2.35;;;;;;;;;;5047203;28;20033;-63
2022/01/31 05:00:06;;;;;;;17.08;3.67;;;;;;;;;;5033620;28;20037;-63
2022/01/31 05:02:32;;;;;;;17.95;2.45;;;;;;;;;;5033004;28;20039;-63
2022/01/31 05:04:58;;;;;;;19.58;2.97;;;;;;;;;;5035249;28;20039;-63
2022/01/31 05:07:24;;;;;;;20.98;3.28;;;;;;;;;;5045314;28;20406;-63
2022/01/31 05:09:50;;;;;;;18.65;3.00;;;;;;;;;;5063406;22;20044;-70
2022/01/31 05:12:17;;;;;;;18.15;3.45;;;;;;;;;;5016404;28;20048;-70
2022/01/31 05:14:43;;;;;;;19.00;3.15;;;;;;;;;;5037273;28;20445;-70
2022/01/31 05:17:09;;;;;;;19.60;3.70;;;;;;;;;;5041414;28;20060;-70
2022/01/31 05:19:35;;;;;;;17.85;2.60;;;;;;;;;;5015798;28;20037;-70
2022/01/31 05:22:01;;;;;;;19.75;3.97;;;;;;;;;;5014879;28;20049;-70
2022/01/31 05:24:28;;;;;;;17.50;2.92;;;;;;;;;;5032950;28;20099;-70
2022/01/31 05:26:54;;;;;;;17.08;3.15;;;;;;;;;;5033019;28;20044;-70
2022/01/31 05:29:21;;;;;;;14.18;2.90;;;;;;;;;;5032817;28;20045;-70
2022/01/31 05:31:48;;;;;;;17.25;3.25;;;;;;;;;;5032524;28;20080;-70
2022/01/31 05:34:14;;;;;;;20.55;3.25;;;;;;;;;;5032840;28;20045;-70
2022/01/31 05:36:40;;;;;;;21.23;3.85;;;;;;;;;;5032055;28;20120;-70
2022/01/31 05:39:06;;;;;;;25.65;3.50;;;;;;;;;;5031088;28;20033;-70
2022/01/31 05:41:32;;;;;;;19.13;3.28;;;;;;;;;;5039973;28;20029;-70
2022/01/31 05:43:58;;;;;;;14.95;2.50;;;;;;;;;;5029446;28;20487;-70
2022/01/31 05:46:24;;;;;;;10.57;1.65;;;;;;;;;;5020192;28;20483;-72
2022/01/31 05:48:51;;;;;;;5.95;1.20;;;;;;;;;;5014651;28;20052;-72
2022/01/31 05:51:19;;;;;;;4.90;1.45;;;;;;;;;;5014267;28;20066;-71
2022/01/31 05:53:46;;;;;;;5.03;1.00;;;;;;;;;;5032100;28;20470;-73
2022/01/31 05:56:12;;;;;;;2.00;0.70;;;;;;;;;;5013981;28;20052;-73
2022/01/31 05:58:38;;;;;;;5.00;0.98;;;;;;;;;;5035039;28;20052;-72
2022/01/31 06:01:06;;;;;;;5.72;0.90;;;;;;;;;;5022301;28;20399;-71
2022/01/31 06:03:32;;;;;;;7.65;1.35;;;;;;;;;;5010473;28;20041;-72
2022/01/31 06:05:58;;;;;;;5.43;1.20;;;;;;;;;;5031500;28;20042;-73
2022/01/31 06:08:24;;;;;;;2.42;0.80;;;;;;;;;;5032490;28;20080;-72
2022/01/31 06:10:50;;;;;;;6.28;0.85;;;;;;;;;;5031855;28;20041;-72
2022/01/31 06:13:22;;;;;;;6.65;0.95;;;;;;;;;;5013984;28;20041;-72
2022/01/31 06:15:48;;;;;;;5.53;0.93;;;;;;;;;;5031273;28;20052;-71
2022/01/31 06:18:14;;;;;;;7.78;0.93;;;;;;;;;;5014238;28;20041;-71
2022/01/31 06:20:40;;;;;;;7.43;1.10;;;;;;;;;;5031687;28;20044;-72
2022/01/31 06:23:06;;;;;;;5.78;1.27;;;;;;;;;;5031504;28;20073;-72
2022/01/31 06:25:34;;;;;;;5.80;0.98;;;;;;;;;;5031444;28;20037;-72
2022/01/31 06:28:00;;;;;;;8.57;1.73;;;;;;;;;;5032125;28;20076;-72
2022/01/31 06:30:26;;;;;;;7.13;1.40;;;;;;;;;;5030512;28;20076;-72
2022/01/31 06:32:53;;;;;;;13.25;1.92;;;;;;;;;;5012505;28;20048;-72
2022/01/31 06:35:19;;;;;;;5.95;1.30;;;;;;;;;;5031563;28;20336;-71
2022/01/31 06:37:45;;;;;;;8.85;1.58;;;;;;;;;;5014088;28;20029;-71
2022/01/31 06:40:11;;;;;;;6.10;1.20;;;;;;;;;;5032010;28;20514;-72
2022/01/31 06:42:37;;;;;;;9.43;1.45;;;;;;;;;;5018813;28;20042;-71
2022/01/31 06:45:04;;;;;;;9.90;1.52;;;;;;;;;;5013271;28;20124;-71
2022/01/31 06:47:30;;;;;;;9.98;1.67;;;;;;;;;;5030927;28;20507;-71
2022/01/31 06:49:56;;;;;;;10.13;1.65;;;;;;;;;;5031834;28;20083;-73
2022/01/31 06:52:23;;;;;;;12.48;2.30;;;;;;;;;;5038258;28;20042;-72
2022/01/31 06:54:51;;;;;;;7.30;1.95;;;;;;;;;;5030935;28;20550;-72
2022/01/31 06:57:23;;;;;;;10.15;1.60;;;;;;;;;;5031469;28;20561;-71
2022/01/31 06:59:49;;;;;;;12.13;2.17;;;;;;;;;;5039047;28;21291;-72
2022/01/31 07:02:15;;;;;;;13.48;2.08;;;;;;;;;;5030368;28;20033;-72
2022/01/31 07:04:41;;;;;;;14.48;1.92;;;;;;;;;;5025457;28;20432;-72
2022/01/31 07:07:07;;;;;;;10.95;2.05;;;;;;;;;;5027727;28;20037;-72
2022/01/31 07:09:35;;;;;;;11.80;2.03;;;;;;;;;;5026008;28;20092;-71
2022/01/31 07:12:03;;;;;;;14.73;2.13;;;;;;;;;;5031201;28;20056;-72
2022/01/31 07:14:30;;;;;;;20.13;2.25;;;;;;;;;;5035222;28;20033;-72
2022/01/31 07:16:56;;;;;;;14.40;1.83;;;;;;;;;;5034732;28;20041;-72
2022/01/31 07:19:25;;;;;;;11.90;2.55;;;;;;;;;;5050792;28;20099;-72
2022/01/31 07:21:51;;;;;;;12.77;2.28;;;;;;;;;;5030592;28;20041;-72
2022/01/31 07:24:30;;;;;;;9.63;1.55;;;;;;;;;;5034375;28;20049;-71
2022/01/31 07:26:57;;;;;;;9.90;1.48;;;;;;;;;;5035035;28;20050;-71
2022/01/31 07:29:23;;;;;;;7.15;1.50;;;;;;;;;;5028723;28;20084;-71
2022/01/31 07:31:50;;;;;;;8.82;1.50;;;;;;;;;;5035118;28;20542;-71
2022/01/31 07:34:17;;;;;;;5.72;1.20;;;;;;;;;;5035232;28;20029;-71
2022/01/31 07:36:45;;;;;;;6.75;1.50;;;;;;;;;;5034504;28;20118;-72
2022/01/31 07:39:11;;;;;;;5.43;1.05;;;;;;;;;;5034679;28;20037;-73
2022/01/31 07:41:38;;;;;;;4.75;0.80;;;;;;;;;;5034656;28;20045;-73
2022/01/31 07:44:04;;;;;;;6.95;1.25;;;;;;;;;;5017474;28;20487;-72
2022/01/31 07:46:30;;;;;;;8.82;1.00;;;;;;;;;;5035025;28;20471;-73
2022/01/31 07:48:56;;;;;;;10.43;1.23;;;;;;;;;;5017174;28;20080;-72
2022/01/31 07:51:22;;;;;;;7.93;1.35;;;;;;;;;;5033635;28;20113;-71
2022/01/31 07:53:48;;;;;;;8.88;1.35;;;;;;;;;;5034004;28;20041;-71
2022/01/31 07:56:15;;;;;;;7.63;1.30;;;;;;;;;;5034312;28;20041;-71
2022/01/31 07:58:42;;;;;;;8.00;1.15;;;;;;;;;;5034095;28;20403;-71
2022/01/31 08:01:08;;;;;;;6.72;1.30;;;;;;;;;;5034967;28;20037;-71
2022/01/31 08:03:35;;;;;;;11.55;2.05;;;;;;;;;;5034212;28;20038;-71
2022/01/31 08:06:02;;;;;;;6.97;1.42;;;;;;;;;;5034523;28;20042;-71
2022/01/31 08:08:29;;;;;;;7.80;1.25;;;;;;;;;;5036335;28;20036;-71
2022/01/31 08:10:58;;;;;;;9.60;1.50;;;;;;;;;;5034706;28;20041;-72
2022/01/31 08:13:25;;;;;;;10.48;1.55;;;;;;;;;;5032524;28;20091;-71
2022/01/31 08:18:27;;;;;;;8.23;1.80;;;;;;;;;;5034423;28;20046;-71
2022/01/31 08:20:53;;;;;;;10.77;1.55;;;;;;;;;;5028249;28;20030;-70
2022/01/31 08:23:19;;;;;;;9.55;1.70;;;;;;;;;;5026989;28;20033;-71
2022/01/31 08:25:49;;;;;;;10.77;1.60;;;;;;;;;;5034126;28;20046;-71
2022/01/31 08:28:16;;;;;;;8.73;1.80;;;;;;;;;;5034504;28;20047;-71
2022/01/31 08:31:01;;;;;;;10.88;2.17;;;;;;;;;;5039286;28;20042;-71
2022/01/31 08:33:42;;;;;;;17.15;2.67;;;;;;;;;;5027725;28;20052;-71
2022/01/31 08:36:08;;;;;;;11.32;2.00;;;;;;;;;;5033453;28;20046;-71
2022/01/31 08:38:35;;;;;;;13.57;2.03;;;;;;;;;;5034045;28;20037;-71
2022/01/31 08:41:01;;;;;;;9.40;1.95;;;;;;;;;;5033829;28;20037;-71
2022/01/31 08:43:27;;;;;;;11.82;2.03;;;;;;;;;;5025757;28;20095;-71
2022/01/31 08:45:56;;;;;;;7.35;1.55;;;;;;;;;;5032729;28;20067;-71
2022/01/31 08:48:23;;;;;;;12.52;2.10;;;;;;;;;;5015406;28;20049;-71
2022/01/31 08:50:49;;;;;;;9.75;1.75;;;;;;;;;;5033286;28;20453;-71
2022/01/31 08:53:15;;;;;;;12.88;2.20;;;;;;;;;;5038640;28;20120;-73
2022/01/31 08:55:45;;;;;;;9.13;1.95;;;;;;;;;;5035287;28;20123;-72
2022/01/31 08:58:11;;;;;;;10.10;2.15;;;;;;;;;;5033554;28;20037;-72
2022/01/31 09:00:37;;;;;;;12.68;2.10;;;;;;;;;;5031320;28;20053;-71
2022/01/31 09:05:36;;;;;;;14.27;2.20;;;;;;;;;;5018885;28;20038;-72
2022/01/31 09:08:02;;;;;;;13.40;2.72;;;;;;;;;;5033851;28;20128;-72
2022/01/31 09:10:28;;;;;;;12.70;2.53;;;;;;;;;;5032673;28;20056;-72
2022/01/31 09:12:54;;;;;;;14.48;2.35;;;;;;;;;;5015533;28;20049;-71
2022/01/31 09:15:20;;;;;;;10.45;1.70;;;;;;;;;;5033095;28;20047;-69
2022/01/31 09:17:46;;;;;;;11.25;1.95;;;;;;;;;;5013914;28;20076;-68
2022/01/31 09:20:12;;;;;;;8.27;1.83;;;;;;;;;;5024329;28;20030;-68
2022/01/31 09:22:38;;;;;;;10.25;1.70;;;;;;;;;;5029433;28;20045;-70
2022/01/31 09:25:04;;;;;;;13.82;2.28;;;;;;;;;;5031045;28;20061;-70
2022/01/31 09:27:30;;;;;;;12.23;2.08;;;;;;;;;;5038433;28;20033;-71
2022/01/31 09:29:57;;;;;;;10.57;1.80;;;;;;;;;;5014255;28;20659;-68
2022/01/31 09:32:24;;;;;;;9.05;1.48;;;;;;;;;;5017495;28;20060;-68
2022/01/31 09:34:51;;;;;;;6.07;1.50;;;;;;;;;;5038902;28;20103;-68
2022/01/31 09:37:20;;;;;;;9.57;1.20;;;;;;;;;;5031761;28;20059;-68
2022/01/31 09:39:47;;;;;;;8.75;1.77;;;;;;;;;;5035708;28;20041;-69
2022/01/31 09:42:17;;;;;;;7.50;1.52;;;;;;;;;;5052955;28;20036;-68
2022/01/31 09:47:21;;;;;;;8.02;1.55;;;;;;;;;;5032829;28;20045;-68
2022/01/31 09:49:48;;;;;;;12.73;1.95;;;;;;;;;;5045165;28;20037;-68
2022/01/31 09:52:14;;;;;;;11.18;1.75;;;;;;;;;;5032829;28;20041;-68
2022/01/31 09:54:42;;;;;;;6.68;1.58;;;;;;;;;;5032135;28;20056;-68
2022/01/31 09:57:08;;;;;;;6.70;1.48;;;;;;;;;;5032070;28;20048;-68
2022/01/31 09:59:34;;;;;;;6.32;1.55;;;;;;;;;;5033611;28;20033;-68
2022/01/31 10:02:08;;;;;;;7.93;1.30;;;;;;;;;;5044904;28;20033;-67
2022/01/31 10:04:36;;;;;;;10.35;1.27;;;;;;;;;;5032208;28;20029;-67
2022/01/31 10:07:03;;;;;;;9.07;1.65;;;;;;;;;;5032210;28;20503;-68
2022/01/31 10:09:29;;;;;;;10.80;1.88;;;;;;;;;;5032285;28;20095;-68
2022/01/31 10:12:07;;;;;;;6.03;1.58;;;;;;;;;;5034353;28;20053;-68
2022/01/31 10:17:22;;;;;;;9.90;1.77;;;;;;;;;;5023578;28;20578;-67
2022/01/31 10:19:48;;;;;;;10.38;2.55;;;;;;;;;;5032653;28;20045;-67
2022/01/31 10:22:15;;;;;;;9.60;1.50;;;;;;;;;;5031898;28;20487;-67
2022/01/31 10:24:42;;;;;;;10.63;1.50;;;;;;;;;;5037330;28;20033;-67
2022/01/31 10:27:23;;;;;;;10.35;1.98;;;;;;;;;;5029927;28;20037;-67
2022/01/31 10:29:51;;;;;;;9.57;1.55;;;;;;;;;;5031725;28;20042;-69
2022/01/31 10:32:23;;;;;;;6.25;1.20;;;;;;;;;;5031829;28;20496;-67
2022/01/31 10:34:51;;;;;;;5.70;1.13;;;;;;;;;;5031584;28;20048;-68
2022/01/31 10:37:19;;;;;;;9.73;2.92;;;;;;;;;;5032085;28;20420;-69
2022/01/31 10:50:49;;;;;;;7.18;1.60;;;;;;;;;;5031730;28;20052;-69
2022/01/31 10:53:15;;;;;;;12.30;3.60;;;;;;;;;;5031824;28;20037;-70
2022/01/31 10:55:41;;;;;;;8.88;1.60;;;;;;;;;;5031351;28;20052;-69
2022/01/31 10:58:10;;;;;;;9.73;1.83;;;;;;;;;;5031595;28;20115;-70
2022/01/31 11:00:37;;;;;;;5.13;1.40;;;;;;;;;;5031842;28;20041;-70
2022/01/31 11:03:22;;;;;;;5.03;1.50;;;;;;;;;;5031000;28;20471;-69
2022/01/31 11:05:51;;;;;;;6.85;1.20;;;;;;;;;;5031208;28;20042;-69
2022/01/31 11:08:17;;;;;;;9.60;1.30;;;;;;;;;;5030552;28;20055;-69
2022/01/31 11:10:44;;;;;;;7.50;1.60;;;;;;;;;;5050009;22;20033;-64
2022/01/31 11:13:10;;;;;;;7.20;1.38;;;;;;;;;;5046336;28;20521;-64
2022/01/31 11:15:39;;;;;;;8.07;1.08;;;;;;;;;;5066317;28;20068;-63
2022/01/31 11:18:06;;;;;;;7.68;1.58;;;;;;;;;;5051455;28;20080;-64
2022/01/31 11:20:33;;;;;;;8.70;1.40;;;;;;;;;;5055343;28;20051;-64
2022/01/31 11:23:00;;;;;;;8.30;1.48;;;;;;;;;;5051602;28;20037;-65
2022/01/31 11:25:26;;;;;;;6.85;1.60;;;;;;;;;;5041042;28;20045;-64
2022/01/31 11:27:53;;;;;;;11.88;1.90;;;;;;;;;;5046722;28;20394;-64
2022/01/31 11:30:20;;;;;;;10.38;1.50;;;;;;;;;;5043849;28;20124;-64
2022/01/31 11:32:47;;;;;;;9.02;1.80;;;;;;;;;;5068012;28;20086;-63
2022/01/31 11:35:13;;;;;;;9.40;1.35;;;;;;;;;;5055598;28;20072;-63
2022/01/31 11:37:39;;;;;;;11.40;1.90;;;;;;;;;;5055630;28;20041;-64
2022/01/31 11:40:07;;;;;;;9.25;1.70;;;;;;;;;;5051210;28;20545;-64
2022/01/31 11:42:34;;;;;;;6.80;1.20;;;;;;;;;;5051070;28;20041;-64
2022/01/31 11:45:01;;;;;;;7.47;1.65;;;;;;;;;;5050986;28;20041;-64
2022/01/31 11:47:29;;;;;;;13.00;2.03;;;;;;;;;;5051067;28;20041;-64
2022/01/31 11:50:02;;;;;;;10.70;1.77;;;;;;;;;;5047904;28;20029;-64
2022/01/31 11:52:33;;;;;;;8.48;1.38;;;;;;;;;;5051134;28;20111;-64
2022/01/31 11:55:01;;;;;;;10.63;2.15;;;;;;;;;;5050786;28;20029;-64
2022/01/31 11:57:28;;;;;;;5.40;1.42;;;;;;;;;;5052099;28;20034;-64
2022/01/31 11:59:55;;;;;;;9.57;1.70;;;;;;;;;;5053442;28;20041;-64
2022/01/31 12:02:22;;;;;;;9.65;1.92;;;;;;;;;;5060291;28;20482;-64
2022/01/31 12:04:49;;;;;;;9.63;1.85;;;;;;;;;;5054384;28;20055;-64
2022/01/31 12:07:40;;;;;;;11.57;1.88;;;;;;;;;;5054428;28;20076;-64
2022/01/31 12:10:08;;;;;;;10.02;1.60;;;;;;;;;;5055407;28;20427;-64
2022/01/31 12:23:49;;;;;;;16.05;2.08;;;;;;;;;;5034549;28;20037;-64
2022/01/31 12:26:35;;;;;;;14.85;2.40;;;;;;;;;;5046289;28;20040;-64
2022/01/31 12:29:01;;;;;;;13.75;1.60;;;;;;;;;;5053729;28;20379;-64
2022/01/31 12:31:35;;;;;;;11.85;1.52;;;;;;;;;;5054016;28;20051;-64
2022/01/31 12:34:09;;;;;;;11.13;1.85;;;;;;;;;;5054132;28;20037;-64
2022/01/31 12:36:35;;;;;;;9.35;1.83;;;;;;;;;;5054170;28;20133;-64
2022/01/31 12:39:24;;;;;;;7.50;1.65;;;;;;;;;;5054040;28;20534;-64
2022/01/31 12:42:00;;;;;;;10.93;1.58;;;;;;;;;;5056119;28;20068;-64
2022/01/31 12:44:29;;;;;;;8.63;2.10;;;;;;;;;;5053918;28;20044;-64
2022/01/31 12:47:08;;;;;;;10.45;1.83;;;;;;;;;;5054072;28;20398;-64
2022/01/31 12:49:34;;;;;;;7.10;1.67;;;;;;;;;;5053659;28;20128;-65
2022/01/31 12:52:07;;;;;;;6.03;1.65;;;;;;;;;;5053698;28;20044;-65
2022/01/31 12:54:34;;;;;;;9.98;1.55;;;;;;;;;;5053261;28;20033;-64
2022/01/31 12:57:18;;;;;;;8.15;2.10;;;;;;;;;;5053552;28;20045;-64
2022/01/31 12:59:49;;;;;;;13.43;2.00;;;;;;;;;;5053422;28;20128;-65
2022/01/31 13:02:15;;;;;;;10.30;1.77;;;;;;;;;;5053443;28;20067;-65
2022/01/31 13:04:48;;;;;;;10.23;1.88;;;;;;;;;;5052599;28;20039;-65
2022/01/31 13:07:15;;;;;;;11.20;1.60;;;;;;;;;;5067748;28;20541;-64
2022/01/31 13:09:43;;;;;;;10.38;1.52;;;;;;;;;;5053450;28;20045;-64
2022/01/31 13:12:14;;;;;;;8.57;1.70;;;;;;;;;;5066935;28;20044;-65
2022/01/31 13:14:44;;;;;;;11.65;1.70;;;;;;;;;;5062369;28;20145;-64
2022/01/31 13:17:15;;;;;;;10.38;1.50;;;;;;;;;;5053146;28;20052;-65
2022/01/31 13:19:42;;;;;;;9.23;1.85;;;;;;;;;;5053609;28;20047;-64
2022/01/31 13:22:17;;;;;;;10.80;1.45;;;;;;;;;;5052849;28;20107;-64
2022/01/31 13:24:45;;;;;;;8.98;1.25;;;;;;;;;;5052737;28;20045;-64
2022/01/31 13:27:12;;;;;;;9.65;1.33;;;;;;;;;;5053270;28;20057;-64
2022/01/31 13:30:05;;;;;;;15.48;2.30;;;;;;;;;;5054095;28;20073;-64
2022/01/31 13:32:33;;;;;;;10.52;1.60;;;;;;;;;;5050311;28;20103;-65
2022/01/31 13:35:00;;;;;;;10.30;2.00;;;;;;;;;;5052971;28;20044;-65
2022/01/31 13:37:38;;;;;;;8.63;2.25;;;;;;;;;;5052411;28;20036;-64
2022/01/31 13:40:07;;;;;;;13.82;1.67;;;;;;;;;;5052703;28;20433;-64
2022/01/31 13:42:38;;;;;;;12.27;1.73;;;;;;;;;;5053056;28;20037;-65
2022/01/31 13:45:04;;;;;;;;;;;;;;;;;;5053083;28;20037;-65
2022/01/31 13:47:37;;;;;;;13.70;1.98;;;;;;;;;;5052661;28;19969;-65
2022/01/31 13:50:13;;;;;;;16.48;2.25;;;;;;;;;;5053603;28;20055;-64
2022/01/31 13:52:54;;;;;;;16.02;2.33;;;;;;;;;;5055688;28;20704;-64
2022/01/31 13:55:21;;;;;;;12.23;2.15;;;;;;;;;;5040849;28;20416;-64
2022/01/31 13:57:47;;;;;;;9.10;1.67;;;;;;;;;;5056927;28;20053;-64
2022/01/31 14:00:13;;;;;;;14.40;2.08;;;;;;;;;;5052052;28;20114;-64
2022/01/31 14:02:40;;;;;;;14.52;2.63;;;;;;;;;;5052381;28;20039;-64
2022/01/31 14:05:19;;;;;;;14.20;2.05;;;;;;;;;;5051658;28;20041;-64
2022/01/31 14:07:45;;;;;;;17.38;2.30;;;;;;;;;;5052014;28;20091;-64
2022/01/31 14:10:27;;;;;;;12.77;2.00;;;;;;;;;;5052193;28;20037;-64
2022/01/31 14:13:00;;;;;;;14.75;1.98;;;;;;;;;;5052179;28;20048;-64
2022/01/31 14:15:26;;;;;;;11.93;2.05;;;;;;;;;;5051721;28;20490;-64
2022/01/31 14:17:52;;;;;;;12.73;1.90;;;;;;;;;;5052154;28;20040;-64
2022/01/31 14:20:19;;;;;;;11.55;1.58;;;;;;;;;;5052304;28;20090;-64
2022/01/31 14:22:45;;;;;;;10.05;1.98;;;;;;;;;;5053657;28;20041;-64
2022/01/31 14:25:12;;;;;;;10.55;2.15;;;;;;;;;;5047566;28;20040;-63
2022/01/31 14:27:49;;;;;;;11.07;2.25;;;;;;;;;;5051704;28;20041;-64
2022/01/31 14:30:19;;;;;;;12.20;2.08;;;;;;;;;;5052154;28;20044;-64
2022/01/31 14:32:55;;;;;;;13.40;2.33;;;;;;;;;;5051634;28;20523;-64
2022/01/31 14:35:23;;;;;;;13.00;2.45;;;;;;;;;;5051859;28;20041;-64
2022/01/31 14:37:52;;;;;;;14.40;2.95;;;;;;;;;;5051491;28;20053;-64
2022/01/31 14:40:50;;;;;;;11.60;1.98;;;;;;;;;;5052751;28;20119;-64
2022/01/31 14:47:14;;;;;;;14.35;2.30;;;;;;;;;;5059372;28;20448;-64
2022/01/31 14:48:45;;;;;;;9.95;2.55;;;;;;;;;;5051829;28;20045;-64
2022/01/31 14:51:23;;;;;;;14.70;2.63;;;;;;;;;;5051942;28;20391;-64
2022/01/31 14:53:53;;;;;;;15.68;2.50;;;;;;;;;;5051318;28;20044;-64
2022/01/31 14:56:19;;;;;;;12.82;2.40;;;;;;;;;;5051100;28;20048;-64
2022/01/31 14:58:45;;;;;;;13.48;3.03;;;;;;;;;;5051347;28;20033;-64
2022/01/31 15:01:11;;;;;;;12.40;2.33;;;;;;;;;;5052458;28;20108;-63
2022/01/31 15:03:38;;;;;;;10.23;2.03;;;;;;;;;;5051473;28;20094;-63
2022/01/31 15:06:04;;;;;;;8.43;2.00;;;;;;;;;;5060678;28;20060;-63
2022/01/31 15:08:30;;;;;;;12.90;1.98;;;;;;;;;;5050722;28;20115;-63
2022/01/31 15:10:56;;;;;;;9.30;1.88;;;;;;;;;;5054785;28;20048;-63
2022/01/31 15:13:22;;;;;;;6.47;1.75;;;;;;;;;;5048098;28;20152;-64
2022/01/31 15:15:52;;;;;;;9.80;1.90;;;;;;;;;;5050594;28;20045;-63